EFSI/SJY METAR and TAF weather

Enter ICAO airport designator
Station Type Date Time Source
EFSI METAR 2020/07/10 19:50 UTC NOAA

EFSI 101950Z AUTO 26002KT CAVOK 11/09 Q1008


Station Type Date Time Source
EFSI Decoded METAR 2020/07/10 19:50 UTC NOAA

Seinajoki-Ilmajok, Finland (EFSI) 62-41-37N 022-49-55E
Jul 10, 2020 - 03:50 PM EDT / 2020.07.10 1950 UTC
Wind: from the W (260 degrees) at 2 MPH (2 KT):0
Visibility: greater than 7 mile(s):0
Temperature: 51 F (11 C)
Dew Point: 48 F (9 C)
Relative Humidity: 87%
Pressure (altimeter): 29.77 in. Hg (1008 hPa)
ob: EFSI 101950Z AUTO 26002KT CAVOK 11/09 Q1008
cycle: 20

Station Type Date Time Source
EFSI TAF 2012/03/06 09:42 UTC NOAA

TAF EFSI 060830Z 0609/0621 12003KT CAVOK

Example: see airport list